Machelen, Belgium
Current Conditions -  °F | °C
As of 4:50 AM on Monday 24 Nov 2014 (Local Time) from EBBR Reporting Station
Broken Clouds Broken Clouds  
Wind Chill: 44°   Ceiling: 3500
Heat Index: 46°   Visibility: 6mi
Dew Point: 45°   Wind: 6mph
Humidity: 93%   Direction: 320°NW
Pressure: 30.15"   Gusts: NA
Location:  50.91°N, 4.44°E
Report Text: EBBR 240350Z 32005KT 9999 FEW009 BKN035 08/07 Q1021 NOSIG
Loading
Personal Weather Stations






























Interactive Weather Map New forecast layout! Learn more

10-Day Weather Forecast

Advertisements
Track Severe Weather on mobile